sensor_id;sensor_type;location;lat;lon;timestamp;P1;durP1;ratioP1;P2;durP2;ratioP2
31081;SDS011;17737;52.586;13.284;2023-03-19T00:00:52;0.50;;;0.50;;
31081;SDS011;17737;52.586;13.284;2023-03-19T00:03:20;0.38;;;0.38;;
31081;SDS011;17737;52.586;13.284;2023-03-19T00:05:49;0.30;;;0.30;;
31081;SDS011;17737;52.586;13.284;2023-03-19T00:08:19;0.40;;;0.40;;
31081;SDS011;17737;52.586;13.284;2023-03-19T00:10:48;0.50;;;0.50;;
31081;SDS011;17737;52.586;13.284;2023-03-19T00:13:16;0.43;;;0.43;;
31081;SDS011;17737;52.586;13.284;2023-03-19T00:15:45;0.40;;;0.40;;
31081;SDS011;17737;52.586;13.284;2023-03-19T00:18:14;0.50;;;0.50;;
31081;SDS011;17737;52.586;13.284;2023-03-19T00:20:43;0.50;;;0.50;;
31081;SDS011;17737;52.586;13.284;2023-03-19T00:23:12;0.40;;;0.40;;
31081;SDS011;17737;52.586;13.284;2023-03-19T00:25:40;0.40;;;0.40;;
31081;SDS011;17737;52.586;13.284;2023-03-19T00:28:08;0.50;;;0.50;;
31081;SDS011;17737;52.586;13.284;2023-03-19T00:30:37;0.50;;;0.50;;
31081;SDS011;17737;52.586;13.284;2023-03-19T00:33:05;0.40;;;0.40;;
31081;SDS011;17737;52.586;13.284;2023-03-19T00:35:35;0.40;;;0.40;;
31081;SDS011;17737;52.586;13.284;2023-03-19T00:38:05;0.40;;;0.40;;
31081;SDS011;17737;52.586;13.284;2023-03-19T00:40:34;0.40;;;0.40;;
31081;SDS011;17737;52.586;13.284;2023-03-19T00:43:02;0.40;;;0.40;;
31081;SDS011;17737;52.586;13.284;2023-03-19T00:45:30;0.38;;;0.38;;
31081;SDS011;17737;52.586;13.284;2023-03-19T00:47:59;0.35;;;0.35;;
31081;SDS011;17737;52.586;13.284;2023-03-19T00:50:27;0.40;;;0.40;;
31081;SDS011;17737;52.586;13.284;2023-03-19T00:52:56;0.50;;;0.50;;
31081;SDS011;17737;52.586;13.284;2023-03-19T00:55:24;0.50;;;0.50;;
31081;SDS011;17737;52.586;13.284;2023-03-19T00:57:52;0.40;;;0.40;;
31081;SDS011;17737;52.586;13.284;2023-03-19T01:00:21;0.50;;;0.50;;
31081;SDS011;17737;52.586;13.284;2023-03-19T01:02:49;0.50;;;0.50;;
31081;SDS011;17737;52.586;13.284;2023-03-19T01:05:17;0.30;;;0.30;;
31081;SDS011;17737;52.586;13.284;2023-03-19T01:07:45;0.40;;;0.40;;
31081;SDS011;17737;52.586;13.284;2023-03-19T01:12:47;0.50;;;0.50;;
31081;SDS011;17737;52.586;13.284;2023-03-19T01:15:15;0.50;;;0.50;;
31081;SDS011;17737;52.586;13.284;2023-03-19T01:17:44;0.30;;;0.30;;
31081;SDS011;17737;52.586;13.284;2023-03-19T01:20:13;0.40;;;0.40;;
31081;SDS011;17737;52.586;13.284;2023-03-19T01:22:44;0.40;;;0.40;;
31081;SDS011;17737;52.586;13.284;2023-03-19T01:25:12;0.40;;;0.40;;
31081;SDS011;17737;52.586;13.284;2023-03-19T01:27:42;0.50;;;0.50;;
31081;SDS011;17737;52.586;13.284;2023-03-19T01:30:11;0.40;;;0.40;;
31081;SDS011;17737;52.586;13.284;2023-03-19T01:32:40;0.50;;;0.50;;
31081;SDS011;17737;52.586;13.284;2023-03-19T01:35:11;0.40;;;0.40;;
31081;SDS011;17737;52.586;13.284;2023-03-19T01:37:39;0.40;;;0.40;;
31081;SDS011;17737;52.586;13.284;2023-03-19T01:40:09;0.50;;;0.50;;
31081;SDS011;17737;52.586;13.284;2023-03-19T01:42:54;0.60;;;0.60;;
31081;SDS011;17737;52.586;13.284;2023-03-19T01:45:31;0.50;;;0.50;;
31081;SDS011;17737;52.586;13.284;2023-03-19T01:48:02;0.35;;;0.35;;
31081;SDS011;17737;52.586;13.284;2023-03-19T01:50:34;0.50;;;0.50;;
31081;SDS011;17737;52.586;13.284;2023-03-19T01:53:09;0.40;;;0.40;;
31081;SDS011;17737;52.586;13.284;2023-03-19T01:55:41;0.55;;;0.50;;
31081;SDS011;17737;52.586;13.284;2023-03-19T01:58:11;0.50;;;0.50;;
31081;SDS011;17737;52.586;13.284;2023-03-19T02:00:40;0.55;;;0.55;;
31081;SDS011;17737;52.586;13.284;2023-03-19T02:03:09;0.45;;;0.40;;
31081;SDS011;17737;52.586;13.284;2023-03-19T02:05:37;0.50;;;0.50;;
31081;SDS011;17737;52.586;13.284;2023-03-19T02:08:10;0.40;;;0.40;;
31081;SDS011;17737;52.586;13.284;2023-03-19T02:10:42;0.50;;;0.50;;
31081;SDS011;17737;52.586;13.284;2023-03-19T02:13:15;0.40;;;0.40;;
31081;SDS011;17737;52.586;13.284;2023-03-19T02:18:12;0.57;;;0.57;;
31081;SDS011;17737;52.586;13.284;2023-03-19T02:20:43;0.40;;;0.40;;
31081;SDS011;17737;52.586;13.284;2023-03-19T02:23:20;0.50;;;0.50;;
31081;SDS011;17737;52.586;13.284;2023-03-19T02:26:05;0.52;;;0.52;;
31081;SDS011;17737;52.586;13.284;2023-03-19T02:28:37;0.50;;;0.50;;
31081;SDS011;17737;52.586;13.284;2023-03-19T02:31:10;0.55;;;0.55;;
31081;SDS011;17737;52.586;13.284;2023-03-19T02:33:40;0.40;;;0.40;;
31081;SDS011;17737;52.586;13.284;2023-03-19T02:36:09;0.50;;;0.50;;
31081;SDS011;17737;52.586;13.284;2023-03-19T02:38:43;0.45;;;0.45;;
31081;SDS011;17737;52.586;13.284;2023-03-19T02:41:16;0.55;;;0.55;;
31081;SDS011;17737;52.586;13.284;2023-03-19T02:43:44;0.50;;;0.50;;
31081;SDS011;17737;52.586;13.284;2023-03-19T02:46:12;0.50;;;0.50;;
31081;SDS011;17737;52.586;13.284;2023-03-19T02:48:40;0.47;;;0.47;;
31081;SDS011;17737;52.586;13.284;2023-03-19T02:51:09;0.40;;;0.40;;
31081;SDS011;17737;52.586;13.284;2023-03-19T02:53:37;0.47;;;0.47;;
31081;SDS011;17737;52.586;13.284;2023-03-19T02:56:05;0.50;;;0.50;;
31081;SDS011;17737;52.586;13.284;2023-03-19T02:58:35;0.40;;;0.40;;
31081;SDS011;17737;52.586;13.284;2023-03-19T03:01:03;0.50;;;0.50;;
31081;SDS011;17737;52.586;13.284;2023-03-19T03:03:31;0.50;;;0.50;;
31081;SDS011;17737;52.586;13.284;2023-03-19T03:05:59;0.30;;;0.30;;
31081;SDS011;17737;52.586;13.284;2023-03-19T03:08:27;0.60;;;0.60;;
31081;SDS011;17737;52.586;13.284;2023-03-19T03:10:55;0.43;;;0.43;;
31081;SDS011;17737;52.586;13.284;2023-03-19T03:13:23;0.40;;;0.40;;
31081;SDS011;17737;52.586;13.284;2023-03-19T03:15:52;0.40;;;0.40;;
31081;SDS011;17737;52.586;13.284;2023-03-19T03:18:20;0.35;;;0.35;;
31081;SDS011;17737;52.586;13.284;2023-03-19T03:20:49;0.40;;;0.40;;
31081;SDS011;17737;52.586;13.284;2023-03-19T03:23:17;0.30;;;0.30;;
31081;SDS011;17737;52.586;13.284;2023-03-19T03:25:48;0.50;;;0.50;;
31081;SDS011;17737;52.586;13.284;2023-03-19T03:28:17;0.50;;;0.50;;
31081;SDS011;17737;52.586;13.284;2023-03-19T03:30:46;0.63;;;0.52;;
31081;SDS011;17737;52.586;13.284;2023-03-19T03:33:15;0.40;;;0.40;;
31081;SDS011;17737;52.586;13.284;2023-03-19T03:35:43;0.60;;;0.60;;
31081;SDS011;17737;52.586;13.284;2023-03-19T03:38:12;0.40;;;0.40;;
31081;SDS011;17737;52.586;13.284;2023-03-19T03:40:40;0.70;;;0.70;;
31081;SDS011;17737;52.586;13.284;2023-03-19T03:43:08;0.55;;;0.55;;
31081;SDS011;17737;52.586;13.284;2023-03-19T03:45:36;0.50;;;0.50;;
31081;SDS011;17737;52.586;13.284;2023-03-19T03:48:05;0.57;;;0.57;;
31081;SDS011;17737;52.586;13.284;2023-03-19T03:50:34;0.50;;;0.50;;
31081;SDS011;17737;52.586;13.284;2023-03-19T03:53:02;0.60;;;0.60;;
31081;SDS011;17737;52.586;13.284;2023-03-19T03:55:30;0.40;;;0.40;;
31081;SDS011;17737;52.586;13.284;2023-03-19T03:57:58;0.40;;;0.40;;
31081;SDS011;17737;52.586;13.284;2023-03-19T04:00:27;0.55;;;0.50;;
31081;SDS011;17737;52.586;13.284;2023-03-19T04:02:55;0.40;;;0.40;;
31081;SDS011;17737;52.586;13.284;2023-03-19T04:05:23;0.57;;;0.55;;
31081;SDS011;17737;52.586;13.284;2023-03-19T04:07:52;0.50;;;0.50;;
31081;SDS011;17737;52.586;13.284;2023-03-19T04:10:21;0.40;;;0.40;;
31081;SDS011;17737;52.586;13.284;2023-03-19T04:12:49;0.80;;;0.50;;
31081;SDS011;17737;52.586;13.284;2023-03-19T04:15:17;0.70;;;0.55;;
31081;SDS011;17737;52.586;13.284;2023-03-19T04:17:45;0.50;;;0.50;;
31081;SDS011;17737;52.586;13.284;2023-03-19T04:20:13;0.50;;;0.50;;
31081;SDS011;17737;52.586;13.284;2023-03-19T04:25:13;0.55;;;0.55;;
31081;SDS011;17737;52.586;13.284;2023-03-19T04:27:41;0.50;;;0.50;;
31081;SDS011;17737;52.586;13.284;2023-03-19T04:30:09;0.50;;;0.50;;
31081;SDS011;17737;52.586;13.284;2023-03-19T04:32:39;0.50;;;0.50;;
31081;SDS011;17737;52.586;13.284;2023-03-19T04:35:09;0.65;;;0.65;;
31081;SDS011;17737;52.586;13.284;2023-03-19T04:37:38;0.45;;;0.45;;
31081;SDS011;17737;52.586;13.284;2023-03-19T04:40:06;0.45;;;0.45;;
31081;SDS011;17737;52.586;13.284;2023-03-19T04:42:37;0.50;;;0.50;;
31081;SDS011;17737;52.586;13.284;2023-03-19T04:45:05;0.50;;;0.50;;
31081;SDS011;17737;52.586;13.284;2023-03-19T04:50:03;0.45;;;0.45;;
31081;SDS011;17737;52.586;13.284;2023-03-19T04:52:33;0.50;;;0.50;;
31081;SDS011;17737;52.586;13.284;2023-03-19T04:55:02;0.60;;;0.60;;
31081;SDS011;17737;52.586;13.284;2023-03-19T04:57:30;0.60;;;0.60;;
31081;SDS011;17737;52.586;13.284;2023-03-19T05:00:00;0.40;;;0.40;;
31081;SDS011;17737;52.586;13.284;2023-03-19T05:02:28;0.60;;;0.60;;
31081;SDS011;17737;52.586;13.284;2023-03-19T05:04:56;0.60;;;0.60;;
31081;SDS011;17737;52.586;13.284;2023-03-19T05:07:24;0.68;;;0.68;;
31081;SDS011;17737;52.586;13.284;2023-03-19T05:09:52;0.45;;;0.45;;
31081;SDS011;17737;52.586;13.284;2023-03-19T05:12:20;0.77;;;0.77;;
31081;SDS011;17737;52.586;13.284;2023-03-19T05:14:48;0.50;;;0.50;;
31081;SDS011;17737;52.586;13.284;2023-03-19T05:17:17;0.43;;;0.43;;
31081;SDS011;17737;52.586;13.284;2023-03-19T05:19:45;0.60;;;0.60;;
31081;SDS011;17737;52.586;13.284;2023-03-19T05:22:13;0.60;;;0.60;;
31081;SDS011;17737;52.586;13.284;2023-03-19T05:24:42;0.52;;;0.52;;
31081;SDS011;17737;52.586;13.284;2023-03-19T05:27:10;0.60;;;0.60;;
31081;SDS011;17737;52.586;13.284;2023-03-19T05:29:38;0.50;;;0.50;;
31081;SDS011;17737;52.586;13.284;2023-03-19T05:32:07;0.55;;;0.55;;
31081;SDS011;17737;52.586;13.284;2023-03-19T05:34:37;0.60;;;0.60;;
31081;SDS011;17737;52.586;13.284;2023-03-19T05:37:05;0.80;;;0.80;;
31081;SDS011;17737;52.586;13.284;2023-03-19T05:39:34;0.45;;;0.45;;
31081;SDS011;17737;52.586;13.284;2023-03-19T05:42:02;0.50;;;0.50;;
31081;SDS011;17737;52.586;13.284;2023-03-19T05:44:31;0.60;;;0.60;;
31081;SDS011;17737;52.586;13.284;2023-03-19T05:46:59;0.43;;;0.43;;
31081;SDS011;17737;52.586;13.284;2023-03-19T05:49:27;0.80;;;0.80;;
31081;SDS011;17737;52.586;13.284;2023-03-19T05:51:56;0.80;;;0.80;;
31081;SDS011;17737;52.586;13.284;2023-03-19T05:54:24;0.88;;;0.85;;
31081;SDS011;17737;52.586;13.284;2023-03-19T05:56:52;0.80;;;0.80;;
31081;SDS011;17737;52.586;13.284;2023-03-19T05:59:20;0.70;;;0.70;;
31081;SDS011;17737;52.586;13.284;2023-03-19T06:01:48;0.80;;;0.80;;
31081;SDS011;17737;52.586;13.284;2023-03-19T06:04:16;0.70;;;0.70;;
31081;SDS011;17737;52.586;13.284;2023-03-19T06:06:44;0.68;;;0.68;;
31081;SDS011;17737;52.586;13.284;2023-03-19T06:09:14;0.70;;;0.70;;
31081;SDS011;17737;52.586;13.284;2023-03-19T06:11:41;0.68;;;0.65;;
31081;SDS011;17737;52.586;13.284;2023-03-19T06:14:09;0.60;;;0.60;;
31081;SDS011;17737;52.586;13.284;2023-03-19T06:16:37;0.60;;;0.60;;
31081;SDS011;17737;52.586;13.284;2023-03-19T06:19:05;0.63;;;0.63;;
31081;SDS011;17737;52.586;13.284;2023-03-19T06:21:33;0.60;;;0.60;;
31081;SDS011;17737;52.586;13.284;2023-03-19T06:24:01;0.68;;;0.68;;
31081;SDS011;17737;52.586;13.284;2023-03-19T06:26:31;0.60;;;0.60;;
31081;SDS011;17737;52.586;13.284;2023-03-19T06:31:27;0.70;;;0.70;;
31081;SDS011;17737;52.586;13.284;2023-03-19T06:33:55;0.75;;;0.73;;
31081;SDS011;17737;52.586;13.284;2023-03-19T06:36:23;0.60;;;0.60;;
31081;SDS011;17737;52.586;13.284;2023-03-19T06:38:51;0.65;;;0.65;;
31081;SDS011;17737;52.586;13.284;2023-03-19T06:41:19;0.70;;;0.70;;
31081;SDS011;17737;52.586;13.284;2023-03-19T06:43:49;0.60;;;0.60;;
31081;SDS011;17737;52.586;13.284;2023-03-19T06:48:45;0.50;;;0.50;;
31081;SDS011;17737;52.586;13.284;2023-03-19T06:51:13;0.50;;;0.50;;
31081;SDS011;17737;52.586;13.284;2023-03-19T06:53:41;0.43;;;0.43;;
31081;SDS011;17737;52.586;13.284;2023-03-19T06:56:09;0.60;;;0.60;;
31081;SDS011;17737;52.586;13.284;2023-03-19T06:58:37;0.60;;;0.60;;
31081;SDS011;17737;52.586;13.284;2023-03-19T07:01:06;0.50;;;0.50;;
31081;SDS011;17737;52.586;13.284;2023-03-19T07:03:35;0.60;;;0.43;;
31081;SDS011;17737;52.586;13.284;2023-03-19T07:06:03;0.50;;;0.50;;
31081;SDS011;17737;52.586;13.284;2023-03-19T07:08:32;0.57;;;0.57;;
31081;SDS011;17737;52.586;13.284;2023-03-19T07:11:02;0.70;;;0.70;;
31081;SDS011;17737;52.586;13.284;2023-03-19T07:13:31;0.52;;;0.52;;
31081;SDS011;17737;52.586;13.284;2023-03-19T07:16:00;0.57;;;0.52;;
31081;SDS011;17737;52.586;13.284;2023-03-19T07:18:29;0.30;;;0.30;;
31081;SDS011;17737;52.586;13.284;2023-03-19T07:20:57;0.50;;;0.50;;
31081;SDS011;17737;52.586;13.284;2023-03-19T07:23:25;0.40;;;0.40;;
31081;SDS011;17737;52.586;13.284;2023-03-19T07:25:53;0.63;;;0.63;;
31081;SDS011;17737;52.586;13.284;2023-03-19T07:28:21;0.50;;;0.50;;
31081;SDS011;17737;52.586;13.284;2023-03-19T07:30:50;0.43;;;0.43;;
31081;SDS011;17737;52.586;13.284;2023-03-19T07:33:18;0.40;;;0.40;;
31081;SDS011;17737;52.586;13.284;2023-03-19T07:35:49;0.40;;;0.40;;
31081;SDS011;17737;52.586;13.284;2023-03-19T07:38:17;0.50;;;0.50;;
31081;SDS011;17737;52.586;13.284;2023-03-19T07:40:44;0.40;;;0.40;;
31081;SDS011;17737;52.586;13.284;2023-03-19T07:43:27;0.40;;;0.40;;
31081;SDS011;17737;52.586;13.284;2023-03-19T07:45:55;0.40;;;0.40;;
31081;SDS011;17737;52.586;13.284;2023-03-19T07:48:23;0.50;;;0.50;;
31081;SDS011;17737;52.586;13.284;2023-03-19T07:50:53;0.47;;;0.47;;
31081;SDS011;17737;52.586;13.284;2023-03-19T07:53:21;0.40;;;0.40;;
31081;SDS011;17737;52.586;13.284;2023-03-19T07:55:49;0.50;;;0.50;;
31081;SDS011;17737;52.586;13.284;2023-03-19T07:58:17;0.60;;;0.60;;
31081;SDS011;17737;52.586;13.284;2023-03-19T08:00:45;0.40;;;0.40;;
31081;SDS011;17737;52.586;13.284;2023-03-19T08:03:13;0.50;;;0.50;;
31081;SDS011;17737;52.586;13.284;2023-03-19T08:05:42;0.60;;;0.60;;
31081;SDS011;17737;52.586;13.284;2023-03-19T08:08:11;0.40;;;0.40;;
31081;SDS011;17737;52.586;13.284;2023-03-19T08:10:40;0.30;;;0.30;;
31081;SDS011;17737;52.586;13.284;2023-03-19T08:13:10;0.60;;;0.60;;
31081;SDS011;17737;52.586;13.284;2023-03-19T08:15:39;0.40;;;0.40;;
31081;SDS011;17737;52.586;13.284;2023-03-19T08:18:07;0.50;;;0.50;;
31081;SDS011;17737;52.586;13.284;2023-03-19T08:20:35;0.40;;;0.40;;
31081;SDS011;17737;52.586;13.284;2023-03-19T08:23:03;0.50;;;0.50;;
31081;SDS011;17737;52.586;13.284;2023-03-19T08:25:32;0.50;;;0.50;;
31081;SDS011;17737;52.586;13.284;2023-03-19T08:28:01;0.50;;;0.50;;
31081;SDS011;17737;52.586;13.284;2023-03-19T08:30:29;0.40;;;0.40;;
31081;SDS011;17737;52.586;13.284;2023-03-19T08:32:58;0.30;;;0.30;;
31081;SDS011;17737;52.586;13.284;2023-03-19T08:35:26;0.40;;;0.40;;
31081;SDS011;17737;52.586;13.284;2023-03-19T08:37:54;0.50;;;0.50;;
31081;SDS011;17737;52.586;13.284;2023-03-19T08:40:23;0.40;;;0.40;;
31081;SDS011;17737;52.586;13.284;2023-03-19T08:42:55;0.40;;;0.40;;
31081;SDS011;17737;52.586;13.284;2023-03-19T08:45:23;0.38;;;0.38;;
31081;SDS011;17737;52.586;13.284;2023-03-19T08:47:52;0.40;;;0.40;;
31081;SDS011;17737;52.586;13.284;2023-03-19T08:50:20;0.30;;;0.30;;
31081;SDS011;17737;52.586;13.284;2023-03-19T08:52:48;0.40;;;0.40;;
31081;SDS011;17737;52.586;13.284;2023-03-19T08:55:16;0.28;;;0.28;;
31081;SDS011;17737;52.586;13.284;2023-03-19T08:57:44;0.40;;;0.40;;
31081;SDS011;17737;52.586;13.284;2023-03-19T09:00:14;0.40;;;0.40;;
31081;SDS011;17737;52.586;13.284;2023-03-19T09:02:44;0.40;;;0.40;;
31081;SDS011;17737;52.586;13.284;2023-03-19T09:05:12;0.57;;;0.57;;
31081;SDS011;17737;52.586;13.284;2023-03-19T09:07:40;0.40;;;0.40;;
31081;SDS011;17737;52.586;13.284;2023-03-19T09:10:09;0.40;;;0.40;;
31081;SDS011;17737;52.586;13.284;2023-03-19T09:12:37;0.50;;;0.50;;
31081;SDS011;17737;52.586;13.284;2023-03-19T09:15:05;0.40;;;0.40;;
31081;SDS011;17737;52.586;13.284;2023-03-19T09:17:36;0.40;;;0.40;;
31081;SDS011;17737;52.586;13.284;2023-03-19T09:20:04;0.40;;;0.40;;
31081;SDS011;17737;52.586;13.284;2023-03-19T09:22:34;0.45;;;0.45;;
31081;SDS011;17737;52.586;13.284;2023-03-19T09:25:02;0.50;;;0.50;;
31081;SDS011;17737;52.586;13.284;2023-03-19T09:27:31;0.30;;;0.30;;
31081;SDS011;17737;52.586;13.284;2023-03-19T09:29:59;0.40;;;0.40;;
31081;SDS011;17737;52.586;13.284;2023-03-19T09:32:27;0.40;;;0.40;;
31081;SDS011;17737;52.586;13.284;2023-03-19T09:34:56;0.50;;;0.50;;
31081;SDS011;17737;52.586;13.284;2023-03-19T09:37:24;0.40;;;0.40;;
31081;SDS011;17737;52.586;13.284;2023-03-19T09:39:52;0.40;;;0.40;;
31081;SDS011;17737;52.586;13.284;2023-03-19T09:42:26;0.40;;;0.40;;
31081;SDS011;17737;52.586;13.284;2023-03-19T09:45:16;0.32;;;0.32;;
31081;SDS011;17737;52.586;13.284;2023-03-19T09:47:46;0.50;;;0.50;;
31081;SDS011;17737;52.586;13.284;2023-03-19T09:50:24;0.40;;;0.40;;
31081;SDS011;17737;52.586;13.284;2023-03-19T09:52:55;0.40;;;0.40;;
31081;SDS011;17737;52.586;13.284;2023-03-19T09:55:34;0.30;;;0.30;;
31081;SDS011;17737;52.586;13.284;2023-03-19T09:58:11;0.40;;;0.40;;
31081;SDS011;17737;52.586;13.284;2023-03-19T10:00:43;0.40;;;0.40;;
31081;SDS011;17737;52.586;13.284;2023-03-19T10:03:26;0.40;;;0.40;;
31081;SDS011;17737;52.586;13.284;2023-03-19T10:06:23;0.30;;;0.30;;
31081;SDS011;17737;52.586;13.284;2023-03-19T10:09:00;0.40;;;0.40;;
31081;SDS011;17737;52.586;13.284;2023-03-19T10:11:57;0.30;;;0.30;;
31081;SDS011;17737;52.586;13.284;2023-03-19T10:14:59;0.40;;;0.40;;
31081;SDS011;17737;52.586;13.284;2023-03-19T10:17:42;0.20;;;0.20;;
31081;SDS011;17737;52.586;13.284;2023-03-19T10:20:28;0.30;;;0.30;;
31081;SDS011;17737;52.586;13.284;2023-03-19T10:23:12;0.30;;;0.30;;
31081;SDS011;17737;52.586;13.284;2023-03-19T10:26:12;0.25;;;0.25;;
31081;SDS011;17737;52.586;13.284;2023-03-19T10:28:44;0.30;;;0.30;;
31081;SDS011;17737;52.586;13.284;2023-03-19T10:31:25;0.30;;;0.30;;
31081;SDS011;17737;52.586;13.284;2023-03-19T10:34:09;0.30;;;0.30;;
31081;SDS011;17737;52.586;13.284;2023-03-19T10:36:58;0.30;;;0.30;;
31081;SDS011;17737;52.586;13.284;2023-03-19T10:39:31;0.30;;;0.30;;
31081;SDS011;17737;52.586;13.284;2023-03-19T10:42:07;0.32;;;0.32;;
31081;SDS011;17737;52.586;13.284;2023-03-19T10:44:55;0.40;;;0.40;;
31081;SDS011;17737;52.586;13.284;2023-03-19T10:47:34;0.30;;;0.30;;
31081;SDS011;17737;52.586;13.284;2023-03-19T10:50:05;0.30;;;0.30;;
31081;SDS011;17737;52.586;13.284;2023-03-19T10:52:41;0.40;;;0.40;;
31081;SDS011;17737;52.586;13.284;2023-03-19T10:55:13;0.40;;;0.40;;
31081;SDS011;17737;52.586;13.284;2023-03-19T10:57:45;0.45;;;0.45;;
31081;SDS011;17737;52.586;13.284;2023-03-19T11:00:18;0.30;;;0.30;;
31081;SDS011;17737;52.586;13.284;2023-03-19T11:02:51;0.40;;;0.40;;
31081;SDS011;17737;52.586;13.284;2023-03-19T11:05:22;0.32;;;0.32;;
31081;SDS011;17737;52.586;13.284;2023-03-19T11:07:54;0.30;;;0.30;;
31081;SDS011;17737;52.586;13.284;2023-03-19T11:10:27;0.30;;;0.30;;
31081;SDS011;17737;52.586;13.284;2023-03-19T11:12:58;0.35;;;0.35;;
31081;SDS011;17737;52.586;13.284;2023-03-19T11:15:32;0.30;;;0.30;;
31081;SDS011;17737;52.586;13.284;2023-03-19T11:18:07;0.30;;;0.30;;
31081;SDS011;17737;52.586;13.284;2023-03-19T11:20:47;0.28;;;0.28;;
31081;SDS011;17737;52.586;13.284;2023-03-19T11:23:21;0.30;;;0.30;;
31081;SDS011;17737;52.586;13.284;2023-03-19T11:25:58;0.30;;;0.30;;
31081;SDS011;17737;52.586;13.284;2023-03-19T11:28:28;0.30;;;0.30;;
31081;SDS011;17737;52.586;13.284;2023-03-19T11:31:00;0.38;;;0.38;;
31081;SDS011;17737;52.586;13.284;2023-03-19T11:33:43;0.38;;;0.38;;
31081;SDS011;17737;52.586;13.284;2023-03-19T11:36:26;0.30;;;0.30;;
31081;SDS011;17737;52.586;13.284;2023-03-19T11:39:09;0.30;;;0.30;;
31081;SDS011;17737;52.586;13.284;2023-03-19T11:42:01;0.32;;;0.32;;
31081;SDS011;17737;52.586;13.284;2023-03-19T11:44:52;0.30;;;0.30;;
31081;SDS011;17737;52.586;13.284;2023-03-19T11:47:35;0.20;;;0.20;;
31081;SDS011;17737;52.586;13.284;2023-03-19T11:50:18;0.30;;;0.30;;
31081;SDS011;17737;52.586;13.284;2023-03-19T11:53:03;0.30;;;0.30;;
31081;SDS011;17737;52.586;13.284;2023-03-19T11:55:47;0.30;;;0.30;;
31081;SDS011;17737;52.586;13.284;2023-03-19T11:58:34;0.32;;;0.32;;
31081;SDS011;17737;52.586;13.284;2023-03-19T12:01:24;0.30;;;0.30;;
31081;SDS011;17737;52.586;13.284;2023-03-19T12:04:18;0.30;;;0.30;;
31081;SDS011;17737;52.586;13.284;2023-03-19T12:07:14;0.30;;;0.30;;
31081;SDS011;17737;52.586;13.284;2023-03-19T12:09:59;0.30;;;0.30;;
31081;SDS011;17737;52.586;13.284;2023-03-19T12:12:53;0.30;;;0.30;;
31081;SDS011;17737;52.586;13.284;2023-03-19T12:15:40;0.40;;;0.40;;
31081;SDS011;17737;52.586;13.284;2023-03-19T12:18:26;0.40;;;0.40;;
31081;SDS011;17737;52.586;13.284;2023-03-19T12:21:22;0.30;;;0.30;;
31081;SDS011;17737;52.586;13.284;2023-03-19T12:24:09;0.30;;;0.30;;
31081;SDS011;17737;52.586;13.284;2023-03-19T12:26:55;0.30;;;0.30;;
31081;SDS011;17737;52.586;13.284;2023-03-19T12:29:47;0.30;;;0.30;;
31081;SDS011;17737;52.586;13.284;2023-03-19T12:32:32;0.30;;;0.30;;
31081;SDS011;17737;52.586;13.284;2023-03-19T12:35:21;0.28;;;0.28;;
31081;SDS011;17737;52.586;13.284;2023-03-19T12:38:01;0.30;;;0.30;;
31081;SDS011;17737;52.586;13.284;2023-03-19T12:40:38;0.30;;;0.30;;
31081;SDS011;17737;52.586;13.284;2023-03-19T12:43:16;0.30;;;0.30;;
31081;SDS011;17737;52.586;13.284;2023-03-19T12:45:51;0.20;;;0.20;;
31081;SDS011;17737;52.586;13.284;2023-03-19T12:48:30;0.30;;;0.30;;
31081;SDS011;17737;52.586;13.284;2023-03-19T12:51:08;0.32;;;0.32;;
31081;SDS011;17737;52.586;13.284;2023-03-19T12:53:43;0.20;;;0.20;;
31081;SDS011;17737;52.586;13.284;2023-03-19T12:56:19;0.20;;;0.20;;
31081;SDS011;17737;52.586;13.284;2023-03-19T12:58:58;0.20;;;0.20;;
31081;SDS011;17737;52.586;13.284;2023-03-19T13:01:36;0.35;;;0.35;;
31081;SDS011;17737;52.586;13.284;2023-03-19T13:04:12;0.30;;;0.30;;
31081;SDS011;17737;52.586;13.284;2023-03-19T13:06:47;0.30;;;0.30;;
31081;SDS011;17737;52.586;13.284;2023-03-19T13:09:23;0.30;;;0.30;;
31081;SDS011;17737;52.586;13.284;2023-03-19T13:11:59;0.30;;;0.30;;
31081;SDS011;17737;52.586;13.284;2023-03-19T13:14:37;0.30;;;0.30;;
31081;SDS011;17737;52.586;13.284;2023-03-19T13:17:22;0.20;;;0.20;;
31081;SDS011;17737;52.586;13.284;2023-03-19T13:20:06;0.20;;;0.20;;
31081;SDS011;17737;52.586;13.284;2023-03-19T13:22:48;0.30;;;0.30;;
31081;SDS011;17737;52.586;13.284;2023-03-19T13:25:22;0.20;;;0.20;;
31081;SDS011;17737;52.586;13.284;2023-03-19T13:28:00;0.30;;;0.30;;
31081;SDS011;17737;52.586;13.284;2023-03-19T13:30:28;0.40;;;0.40;;
31081;SDS011;17737;52.586;13.284;2023-03-19T13:33:01;0.35;;;0.35;;
31081;SDS011;17737;52.586;13.284;2023-03-19T13:35:37;0.20;;;0.20;;
31081;SDS011;17737;52.586;13.284;2023-03-19T13:38:14;0.40;;;0.40;;
31081;SDS011;17737;52.586;13.284;2023-03-19T13:40:48;0.30;;;0.30;;
31081;SDS011;17737;52.586;13.284;2023-03-19T13:49:29;0.30;;;0.30;;
31081;SDS011;17737;52.586;13.284;2023-03-19T13:52:09;0.30;;;0.30;;
31081;SDS011;17737;52.586;13.284;2023-03-19T13:55:43;0.30;;;0.30;;
31081;SDS011;17737;52.586;13.284;2023-03-19T13:58:18;0.30;;;0.30;;
31081;SDS011;17737;52.586;13.284;2023-03-19T14:01:08;0.20;;;0.20;;
31081;SDS011;17737;52.586;13.284;2023-03-19T14:03:59;0.20;;;0.20;;
31081;SDS011;17737;52.586;13.284;2023-03-19T14:06:29;0.20;;;0.20;;
31081;SDS011;17737;52.586;13.284;2023-03-19T14:09:04;0.30;;;0.30;;
31081;SDS011;17737;52.586;13.284;2023-03-19T14:11:54;0.22;;;0.22;;
31081;SDS011;17737;52.586;13.284;2023-03-19T14:14:40;0.20;;;0.20;;
31081;SDS011;17737;52.586;13.284;2023-03-19T14:17:13;0.20;;;0.20;;
31081;SDS011;17737;52.586;13.284;2023-03-19T14:19:46;0.30;;;0.30;;
31081;SDS011;17737;52.586;13.284;2023-03-19T14:22:19;0.25;;;0.25;;
31081;SDS011;17737;52.586;13.284;2023-03-19T14:25:03;0.30;;;0.30;;
31081;SDS011;17737;52.586;13.284;2023-03-19T14:27:43;0.20;;;0.20;;
31081;SDS011;17737;52.586;13.284;2023-03-19T14:30:18;0.20;;;0.20;;
31081;SDS011;17737;52.586;13.284;2023-03-19T14:32:56;0.22;;;0.22;;
31081;SDS011;17737;52.586;13.284;2023-03-19T14:35:32;0.20;;;0.20;;
31081;SDS011;17737;52.586;13.284;2023-03-19T14:38:09;0.30;;;0.30;;
31081;SDS011;17737;52.586;13.284;2023-03-19T14:40:49;0.30;;;0.30;;
31081;SDS011;17737;52.586;13.284;2023-03-19T14:43:22;0.30;;;0.30;;
31081;SDS011;17737;52.586;13.284;2023-03-19T14:46:18;0.20;;;0.20;;
31081;SDS011;17737;52.586;13.284;2023-03-19T14:52:30;0.20;;;0.20;;
31081;SDS011;17737;52.586;13.284;2023-03-19T14:55:02;0.30;;;0.30;;
31081;SDS011;17737;52.586;13.284;2023-03-19T14:57:39;0.30;;;0.30;;
31081;SDS011;17737;52.586;13.284;2023-03-19T15:00:11;0.20;;;0.20;;
31081;SDS011;17737;52.586;13.284;2023-03-19T15:02:44;0.20;;;0.20;;
31081;SDS011;17737;52.586;13.284;2023-03-19T15:05:16;0.20;;;0.20;;
31081;SDS011;17737;52.586;13.284;2023-03-19T15:07:52;0.20;;;0.20;;
31081;SDS011;17737;52.586;13.284;2023-03-19T15:10:26;0.15;;;0.15;;
31081;SDS011;17737;52.586;13.284;2023-03-19T15:13:07;0.20;;;0.20;;
31081;SDS011;17737;52.586;13.284;2023-03-19T15:15:56;0.20;;;0.20;;
31081;SDS011;17737;52.586;13.284;2023-03-19T15:18:48;0.20;;;0.20;;
31081;SDS011;17737;52.586;13.284;2023-03-19T15:21:17;0.20;;;0.20;;
31081;SDS011;17737;52.586;13.284;2023-03-19T15:23:47;0.30;;;0.30;;
31081;SDS011;17737;52.586;13.284;2023-03-19T15:28:57;0.30;;;0.30;;
31081;SDS011;17737;52.586;13.284;2023-03-19T15:34:19;0.30;;;0.30;;
31081;SDS011;17737;52.586;13.284;2023-03-19T15:36:51;0.20;;;0.20;;